createdAt,value
2018-05-04T00:00:40.424Z,44.81
2018-05-04T00:01:40.345Z,44.62
2018-05-04T00:02:40.378Z,44.71
2018-05-04T00:03:40.504Z,44.90
2018-05-04T00:04:40.536Z,44.90
2018-05-04T00:05:40.610Z,44.81
2018-05-04T00:06:40.937Z,44.71
2018-05-04T00:07:40.718Z,44.90
2018-05-04T00:08:40.662Z,44.90
2018-05-04T00:09:40.588Z,44.90
2018-05-04T00:10:41.041Z,44.71
2018-05-04T00:11:40.648Z,44.62
2018-05-04T00:12:40.700Z,44.32
2018-05-04T00:13:41.154Z,44.90
2018-05-04T00:14:40.829Z,44.90
2018-05-04T00:15:40.806Z,45.00
2018-05-04T00:16:40.794Z,45.00
2018-05-04T00:17:40.893Z,44.90
2018-05-04T00:18:40.906Z,44.81
2018-05-04T00:19:40.898Z,44.71
2018-05-04T00:20:41.320Z,44.42
2018-05-04T00:21:40.941Z,44.23
2018-05-04T00:22:40.981Z,44.71
2018-05-04T00:23:41.027Z,44.62
2018-05-04T00:24:41.043Z,44.52
2018-05-04T00:25:41.574Z,44.90
2018-05-04T00:26:41.504Z,45.00
2018-05-04T00:27:41.147Z,44.90
2018-05-04T00:28:41.213Z,44.71
2018-05-04T00:29:41.400Z,44.90
2018-05-04T00:30:41.322Z,45.20
2018-05-04T00:31:41.410Z,45.10
2018-05-04T00:32:41.832Z,45.48
2018-05-04T00:34:41.361Z,45.10
2018-05-04T00:35:41.376Z,44.90
2018-05-04T00:36:41.491Z,45.48
2018-05-04T00:37:41.445Z,44.81
2018-05-04T00:38:41.875Z,45.07
2018-05-04T00:39:41.662Z,45.07
2018-05-04T00:40:41.971Z,45.17
2018-05-04T00:41:41.626Z,45.00
2018-05-04T00:42:41.588Z,45.29
2018-05-04T00:43:41.618Z,45.17
2018-05-04T00:44:42.320Z,45.17
2018-05-04T00:45:41.687Z,45.17
2018-05-04T00:46:41.757Z,45.17
2018-05-04T00:47:41.830Z,45.27
2018-05-04T00:48:41.870Z,45.46
2018-05-04T00:49:41.978Z,45.56
2018-05-04T00:50:42.278Z,45.17
2018-05-04T00:51:41.956Z,44.89
2018-05-04T00:52:42.030Z,45.07
2018-05-04T00:53:42.172Z,45.75
2018-05-04T00:54:42.059Z,45.56
2018-05-04T00:55:42.182Z,44.98
2018-05-04T00:56:42.429Z,45.17
2018-05-04T00:57:42.072Z,45.84
2018-05-04T00:58:42.082Z,45.56
2018-05-04T00:59:42.107Z,45.65
2018-05-04T01:00:42.336Z,45.65
2018-05-04T01:01:42.239Z,45.75
2018-05-04T01:02:43.026Z,45.46
2018-05-04T01:03:42.325Z,45.46
2018-05-04T01:04:42.308Z,44.98
2018-05-04T01:05:42.344Z,45.84
2018-05-04T01:06:42.454Z,45.65
2018-05-04T01:07:42.394Z,45.56
2018-05-04T01:08:42.737Z,45.56
2018-05-04T01:09:42.415Z,45.46
2018-05-04T01:10:42.550Z,45.65
2018-05-04T01:11:42.491Z,45.75
2018-05-04T01:12:42.716Z,45.94
2018-05-04T01:13:42.621Z,45.46
2018-05-04T01:14:43.018Z,45.56
2018-05-04T01:15:42.687Z,45.65
2018-05-04T01:16:42.736Z,45.65
2018-05-04T01:17:42.799Z,45.46
2018-05-04T01:18:42.525Z,45.84
2018-05-04T01:19:42.561Z,45.65
2018-05-04T01:20:42.943Z,45.56
2018-05-04T01:21:42.620Z,45.56
2018-05-04T01:22:42.759Z,45.46
2018-05-04T01:23:42.686Z,45.65
2018-05-04T01:24:42.715Z,45.84
2018-05-04T01:25:42.746Z,45.84
2018-05-04T01:26:43.072Z,45.75
2018-05-04T01:27:42.830Z,45.94
2018-05-04T01:28:42.832Z,45.84
2018-05-04T01:29:42.912Z,46.14
2018-05-04T01:30:43.004Z,45.75
2018-05-04T01:31:42.995Z,46.04
2018-05-04T01:32:43.305Z,45.75
2018-05-04T01:33:42.984Z,45.84
2018-05-04T01:34:43.077Z,46.14
2018-05-04T01:35:43.051Z,46.04
2018-05-04T01:36:43.078Z,45.84
2018-05-04T01:37:43.139Z,45.65
2018-05-04T01:38:43.144Z,45.84
2018-05-04T01:39:43.512Z,45.73
2018-05-04T01:40:43.243Z,45.84
2018-05-04T01:41:43.231Z,45.75
2018-05-04T01:42:43.297Z,46.14
2018-05-04T01:43:43.283Z,45.65
2018-05-04T01:44:43.312Z,45.63
2018-05-04T01:45:43.367Z,46.14
2018-05-04T01:46:44.207Z,46.01
2018-05-04T01:47:43.518Z,45.83
2018-05-04T01:48:43.438Z,45.83
2018-05-04T01:49:43.516Z,46.01
2018-05-04T01:50:43.560Z,45.83
2018-05-04T01:51:43.526Z,46.01
2018-05-04T01:52:43.553Z,46.11
2018-05-04T01:53:43.888Z,45.92
2018-05-04T01:54:43.612Z,46.11
2018-05-04T01:55:43.691Z,46.21
2018-05-04T01:56:43.724Z,46.11
2018-05-04T01:57:43.818Z,46.11
2018-05-04T01:58:43.784Z,45.92
2018-05-04T01:59:43.767Z,45.92
2018-05-04T02:00:44.143Z,45.63
2018-05-04T02:01:43.829Z,46.31
2018-05-04T02:02:43.883Z,46.11
2018-05-04T02:03:43.936Z,45.83
2018-05-04T02:04:43.945Z,46.31
2018-05-04T02:05:44.061Z,46.31
2018-05-04T02:06:44.071Z,45.92
2018-05-04T02:07:44.367Z,46.11
2018-05-04T02:08:44.050Z,46.21
2018-05-04T02:09:44.066Z,46.11
2018-05-04T02:10:44.099Z,46.31
2018-05-04T02:11:44.227Z,46.40
2018-05-04T02:12:44.173Z,46.50
2018-05-04T02:13:44.183Z,46.50
2018-05-04T02:14:44.577Z,46.50
2018-05-04T02:15:44.246Z,46.78
2018-05-04T02:16:44.281Z,46.40
2018-05-04T02:17:44.355Z,46.21
2018-05-04T02:18:44.331Z,46.40
2018-05-04T02:19:44.361Z,46.50
2018-05-04T02:20:44.665Z,46.69
2018-05-04T02:21:44.752Z,46.59
2018-05-04T02:22:44.537Z,46.31
2018-05-04T02:23:44.486Z,46.88
2018-05-04T02:24:44.517Z,46.78
2018-05-04T02:25:44.598Z,46.78
2018-05-04T02:26:44.582Z,46.77
2018-05-04T02:27:44.605Z,46.59
2018-05-04T02:28:44.934Z,46.40
2018-05-04T02:29:44.666Z,46.47
2018-05-04T02:30:44.793Z,46.47
2018-05-04T02:31:44.724Z,46.59
2018-05-04T02:32:44.750Z,46.67
2018-05-04T02:33:44.840Z,46.47
2018-05-04T02:34:44.853Z,46.86
2018-05-04T02:35:45.141Z,47.05
2018-05-04T02:36:44.870Z,46.98
2018-05-04T02:37:44.900Z,46.77
2018-05-04T02:38:44.931Z,46.86
2018-05-04T02:39:45.181Z,46.77
2018-05-04T02:40:45.003Z,47.05
2018-05-04T02:41:45.085Z,46.86
2018-05-04T02:42:45.366Z,47.05
2018-05-04T02:43:45.083Z,47.05
2018-05-04T02:44:45.115Z,46.95
2018-05-04T02:45:45.241Z,46.77
2018-05-04T02:46:45.197Z,46.57
2018-05-04T02:47:45.201Z,46.77
2018-05-04T02:48:45.286Z,47.24
2018-05-04T02:49:45.654Z,47.05
2018-05-04T02:50:45.290Z,46.86
2018-05-04T02:51:45.320Z,47.15
2018-05-04T02:52:45.611Z,46.86
2018-05-04T02:53:45.378Z,46.28
2018-05-04T02:54:45.448Z,47.34
2018-05-04T02:55:46.024Z,46.67
2018-05-04T02:56:45.518Z,47.05
2018-05-04T02:57:45.503Z,47.15
2018-05-04T02:58:45.528Z,47.05
2018-05-04T02:59:45.637Z,47.05
2018-05-04T03:00:45.863Z,46.95
2018-05-04T03:01:45.979Z,47.15
2018-05-04T03:02:45.647Z,47.05
2018-05-04T03:03:45.679Z,47.05
2018-05-04T03:04:45.734Z,47.05
2018-05-04T03:05:45.797Z,47.05
2018-05-04T03:06:45.766Z,46.86
2018-05-04T03:07:46.095Z,47.24
2018-05-04T03:08:45.830Z,47.24
2018-05-04T03:09:45.894Z,47.34
2018-05-04T03:10:45.886Z,47.34
2018-05-04T03:11:46.070Z,47.44
2018-05-04T03:12:45.943Z,47.44
2018-05-04T03:13:46.329Z,47.63
2018-05-04T03:14:46.009Z,47.44
2018-05-04T03:15:46.032Z,47.34
2018-05-04T03:16:46.063Z,47.24
2018-05-04T03:17:46.091Z,47.44
2018-05-04T03:18:46.259Z,47.34
2018-05-04T03:19:46.504Z,47.44
2018-05-04T03:20:46.184Z,47.44
2018-05-04T03:21:46.211Z,47.24
2018-05-04T03:22:46.250Z,47.51
2018-05-04T03:23:46.331Z,47.44
2018-05-04T03:24:46.300Z,47.44
2018-05-04T03:25:47.328Z,47.63
2018-05-04T03:26:46.362Z,47.72
2018-05-04T03:27:46.450Z,47.99
2018-05-04T03:28:46.468Z,47.80
2018-05-04T03:29:46.445Z,47.61
2018-05-04T03:30:46.500Z,47.70
2018-05-04T03:31:46.808Z,47.72
2018-05-04T03:32:46.552Z,47.80
2018-05-04T03:33:46.619Z,47.70
2018-05-04T03:34:46.603Z,47.53
2018-05-04T03:35:46.631Z,47.80
2018-05-04T03:36:46.704Z,47.70
2018-05-04T03:37:46.985Z,47.70
2018-05-04T03:38:46.712Z,47.61
2018-05-04T03:39:46.743Z,47.61
2018-05-04T03:40:46.829Z,47.80
2018-05-04T03:41:46.860Z,47.80
2018-05-04T03:42:46.901Z,47.70
2018-05-04T03:43:47.217Z,47.70
2018-05-04T03:44:46.970Z,47.70
2018-05-04T03:45:46.974Z,47.61
2018-05-04T03:46:46.952Z,47.61
2018-05-04T03:47:47.030Z,47.51
2018-05-04T03:48:47.035Z,47.41
2018-05-04T03:49:47.348Z,47.51
2018-05-04T03:50:47.139Z,47.51
2018-05-04T03:51:47.240Z,47.99
2018-05-04T03:52:47.256Z,47.61
2018-05-04T03:53:47.156Z,47.61
2018-05-04T03:54:47.187Z,47.70
2018-05-04T03:55:47.570Z,47.51
2018-05-04T03:56:47.264Z,47.51
2018-05-04T03:57:47.288Z,47.89
2018-05-04T03:58:47.326Z,47.80
2018-05-04T03:59:47.334Z,47.89
2018-05-04T04:00:47.463Z,48.08
2018-05-04T04:01:47.697Z,47.89
2018-05-04T04:02:47.547Z,47.99
2018-05-04T04:03:47.457Z,47.89
2018-05-04T04:04:47.476Z,47.89
2018-05-04T04:05:47.506Z,47.80
2018-05-04T04:06:47.538Z,47.51
2018-05-04T04:07:47.617Z,47.80
2018-05-04T04:08:47.953Z,47.99
2018-05-04T04:09:47.628Z,47.89
2018-05-04T04:10:47.767Z,47.89
2018-05-04T04:11:47.771Z,48.28
2018-05-04T04:12:47.733Z,48.28
2018-05-04T04:13:47.749Z,48.18
2018-05-04T04:14:47.775Z,48.18
2018-05-04T04:15:48.425Z,48.08
2018-05-04T04:16:47.850Z,48.18
2018-05-04T04:17:47.864Z,48.18
2018-05-04T04:18:47.946Z,48.18
2018-05-04T04:19:47.920Z,48.28
2018-05-04T04:20:47.961Z,48.28
2018-05-04T04:21:48.004Z,48.57
2018-05-04T04:22:48.316Z,48.38
2018-05-04T04:23:48.041Z,48.08
2018-05-04T04:24:48.071Z,48.18
2018-05-04T04:25:48.175Z,48.18
2018-05-04T04:26:48.124Z,48.18
2018-05-04T04:27:48.288Z,48.18
2018-05-04T04:28:48.187Z,48.18
2018-05-04T04:29:48.513Z,48.18
2018-05-04T04:30:48.260Z,48.18
2018-05-04T04:31:48.331Z,48.18
2018-05-04T04:32:48.308Z,48.18
2018-05-04T04:33:48.333Z,48.18
2018-05-04T04:34:48.365Z,48.18
2018-05-04T04:35:48.443Z,48.47
2018-05-04T04:36:48.822Z,48.57
2018-05-04T04:37:48.454Z,48.38
2018-05-04T04:38:48.552Z,48.18
2018-05-04T04:39:48.535Z,48.47
2018-05-04T04:40:48.603Z,48.38
2018-05-04T04:41:48.570Z,48.38
2018-05-04T04:42:48.604Z,48.57
2018-05-04T04:43:48.928Z,48.57
2018-05-04T04:44:48.658Z,48.28
2018-05-04T04:45:48.926Z,48.47
2018-05-04T04:46:48.867Z,48.47
2018-05-04T04:47:48.844Z,48.38
2018-05-04T04:48:48.793Z,48.47
2018-05-04T04:49:48.811Z,48.47
2018-05-04T04:50:49.222Z,48.57
2018-05-04T04:51:48.913Z,48.28
2018-05-04T04:52:48.892Z,48.38
2018-05-04T04:53:48.921Z,48.28
2018-05-04T04:54:49.005Z,48.47
2018-05-04T04:55:49.052Z,48.57
2018-05-04T04:56:49.011Z,48.28
2018-05-04T04:57:49.387Z,48.47
2018-05-04T04:58:49.111Z,48.57
2018-05-04T04:59:49.099Z,48.57
2018-05-04T05:00:49.132Z,48.47
2018-05-04T05:01:49.461Z,48.47
2018-05-04T05:02:49.326Z,48.38
2018-05-04T05:03:49.357Z,48.28
2018-05-04T05:04:49.548Z,48.47
2018-05-04T05:05:49.288Z,48.47
2018-05-04T05:06:49.334Z,48.57
2018-05-04T05:07:49.334Z,48.28
2018-05-04T05:08:49.362Z,48.28
2018-05-04T05:09:49.392Z,48.47
2018-05-04T05:10:49.420Z,48.47
2018-05-04T05:11:49.786Z,48.38
2018-05-04T05:12:49.480Z,48.38
2018-05-04T05:13:49.609Z,48.18
2018-05-04T05:14:49.640Z,48.38
2018-05-04T05:15:49.573Z,48.38
2018-05-04T05:16:49.597Z,48.28
2018-05-04T05:17:49.626Z,48.28
2018-05-04T05:18:49.965Z,48.47
2018-05-04T05:19:49.701Z,48.28
2018-05-04T05:20:49.735Z,48.47
2018-05-04T05:21:49.815Z,48.38
2018-05-04T05:22:49.844Z,48.28
2018-05-04T05:23:49.806Z,48.57
2018-05-04T05:24:50.544Z,48.57
2018-05-04T05:25:49.877Z,48.28
2018-05-04T05:26:49.894Z,48.28
2018-05-04T05:27:49.981Z,48.47
2018-05-04T05:28:49.954Z,48.47
2018-05-04T05:29:49.986Z,48.28
2018-05-04T05:30:50.374Z,48.28
2018-05-04T05:31:50.044Z,48.47
2018-05-04T05:32:50.078Z,48.28
2018-05-04T05:33:50.109Z,48.28
2018-05-04T05:34:50.148Z,48.28
2018-05-04T05:35:50.161Z,48.47
2018-05-04T05:36:50.488Z,48.28
2018-05-04T05:37:50.233Z,48.66
2018-05-04T05:38:50.252Z,48.38
2018-05-04T05:39:50.278Z,48.57
2018-05-04T05:40:50.398Z,48.38
2018-05-04T05:41:50.343Z,48.38
2018-05-04T05:42:50.666Z,48.28
2018-05-04T05:43:50.454Z,48.57
2018-05-04T05:44:50.439Z,48.57
2018-05-04T05:45:50.524Z,48.49
2018-05-04T05:46:50.524Z,48.28
2018-05-04T05:47:50.512Z,48.28
2018-05-04T05:48:50.900Z,48.59
2018-05-04T05:49:50.575Z,48.59
2018-05-04T05:50:50.604Z,48.30
2018-05-04T05:51:50.679Z,48.30
2018-05-04T05:52:50.668Z,48.49
2018-05-04T05:53:50.696Z,48.57
2018-05-04T05:54:51.101Z,48.47
2018-05-04T05:55:50.769Z,48.47
2018-05-04T05:56:50.897Z,48.28
2018-05-04T05:57:50.810Z,48.28
2018-05-04T05:58:50.838Z,48.28
2018-05-04T05:59:50.922Z,48.59
2018-05-04T06:00:50.910Z,48.40
2018-05-04T06:01:50.934Z,48.79
2018-05-04T06:02:50.962Z,49.55
2018-05-04T06:03:51.124Z,49.46
2018-05-04T06:04:51.018Z,50.04
2018-05-04T06:05:51.059Z,49.65
2018-05-04T06:06:51.429Z,49.65
2018-05-04T06:07:51.113Z,49.17
2018-05-04T06:08:51.140Z,49.65
2018-05-04T06:09:51.181Z,49.65
2018-05-04T06:10:51.194Z,49.46
2018-05-04T06:11:51.229Z,49.68
2018-05-04T06:12:51.615Z,49.68
2018-05-04T06:13:51.293Z,49.48
2018-05-04T06:14:51.319Z,49.29
2018-05-04T06:15:51.347Z,49.10
2018-05-04T06:16:51.379Z,48.90
2018-05-04T06:17:51.403Z,49.00
2018-05-04T06:18:51.789Z,49.38
2018-05-04T06:19:51.521Z,49.19
2018-05-04T06:20:51.492Z,49.29
2018-05-04T06:21:51.532Z,49.00
2018-05-04T06:22:51.642Z,49.51
2018-05-04T06:23:51.674Z,49.51
2018-05-04T06:24:51.966Z,49.12
2018-05-04T06:25:51.642Z,49.12
2018-05-04T06:26:51.728Z,49.51
2018-05-04T06:27:51.707Z,49.51
2018-05-04T06:28:51.758Z,49.60
2018-05-04T06:29:51.766Z,48.83
2018-05-04T06:30:52.107Z,48.93
2018-05-04T06:31:51.831Z,48.74
2018-05-04T06:32:51.863Z,48.74
2018-05-04T06:33:51.938Z,48.74
2018-05-04T06:34:51.916Z,48.74
2018-05-04T06:35:51.952Z,48.64
2018-05-04T06:36:52.011Z,48.35
2018-05-04T06:37:52.306Z,48.44
2018-05-04T06:38:52.034Z,48.54
2018-05-04T06:39:52.119Z,48.54
2018-05-04T06:40:52.104Z,48.44
2018-05-04T06:41:52.126Z,48.44
2018-05-04T06:42:52.162Z,48.35
2018-05-04T06:43:52.194Z,48.54
2018-05-04T06:44:52.527Z,48.54
2018-05-04T06:45:52.271Z,48.54
2018-05-04T06:46:52.277Z,48.54
2018-05-04T06:47:52.324Z,48.25
2018-05-04T06:48:52.348Z,48.25
2018-05-04T06:49:52.402Z,48.35
2018-05-04T06:50:52.399Z,48.35
2018-05-04T06:51:52.776Z,48.57
2018-05-04T06:52:52.462Z,48.25
2018-05-04T06:53:52.499Z,48.18
2018-05-04T06:54:52.517Z,47.89
2018-05-04T06:55:52.568Z,47.99
2018-05-04T06:56:52.631Z,47.99
2018-05-04T06:57:52.629Z,47.99
2018-05-04T06:58:52.939Z,47.89
2018-05-04T06:59:52.674Z,47.70
2018-05-04T07:00:52.721Z,47.80
2018-05-04T07:01:52.831Z,47.60
2018-05-04T07:02:52.765Z,47.70
2018-05-04T07:03:52.870Z,47.51
2018-05-04T07:04:52.847Z,47.60
2018-05-04T07:05:53.167Z,47.89
2018-05-04T07:06:52.893Z,47.80
2018-05-04T07:07:53.014Z,47.80
2018-05-04T07:08:52.996Z,47.89
2018-05-04T07:09:52.981Z,47.70
2018-05-04T07:10:53.009Z,47.89
2018-05-04T07:11:53.035Z,47.70
2018-05-04T07:12:53.434Z,47.31
2018-05-04T07:13:53.103Z,47.41
2018-05-04T07:14:53.149Z,47.41
2018-05-04T07:15:53.240Z,47.41
2018-05-04T07:16:53.201Z,47.51
2018-05-04T07:17:53.618Z,47.51
2018-05-04T07:18:53.259Z,47.51
2018-05-04T07:19:53.591Z,47.41
2018-05-04T07:20:53.384Z,47.70
2018-05-04T07:21:53.341Z,47.41
2018-05-04T07:22:53.427Z,47.12
2018-05-04T07:23:53.419Z,47.03
2018-05-04T07:24:53.522Z,47.12
2018-05-04T07:25:53.493Z,47.12
2018-05-04T07:26:53.806Z,47.22
2018-05-04T07:27:53.532Z,47.41
2018-05-04T07:28:53.624Z,47.31
2018-05-04T07:29:53.734Z,47.12
2018-05-04T07:30:53.618Z,47.12
2018-05-04T07:31:53.654Z,47.14
2018-05-04T07:32:53.884Z,46.73
2018-05-04T07:33:54.062Z,46.83
2018-05-04T07:34:53.755Z,46.73
2018-05-04T07:35:53.925Z,46.95
2018-05-04T07:36:53.800Z,46.83
2018-05-04T07:37:53.884Z,46.66
2018-05-04T07:38:53.862Z,46.86
2018-05-04T07:39:53.911Z,47.24
2018-05-04T07:40:54.478Z,47.14
2018-05-04T07:41:53.956Z,46.95
2018-05-04T07:42:54.041Z,47.14
2018-05-04T07:43:54.031Z,47.05
2018-05-04T07:44:54.051Z,47.05
2018-05-04T07:45:54.084Z,47.14
2018-05-04T07:46:54.117Z,47.14
2018-05-04T07:47:54.445Z,47.14
2018-05-04T07:48:54.197Z,47.14
2018-05-04T07:49:54.204Z,46.66
2018-05-04T07:50:54.233Z,46.56
2018-05-04T07:51:54.267Z,46.47
2018-05-04T07:52:54.356Z,46.56
2018-05-04T07:53:54.328Z,46.56
2018-05-04T07:54:54.712Z,46.76
2018-05-04T07:55:54.498Z,46.86
2018-05-04T07:56:54.469Z,46.86
2018-05-04T07:57:54.455Z,46.66
2018-05-04T07:58:54.535Z,46.76
2018-05-04T07:59:54.509Z,46.66
2018-05-04T08:00:54.844Z,46.76
2018-05-04T08:01:54.607Z,46.56
2018-05-04T08:02:54.608Z,46.47
2018-05-04T08:03:54.636Z,46.76
2018-05-04T08:04:54.668Z,46.37
2018-05-04T08:05:54.708Z,46.37
2018-05-04T08:06:55.079Z,46.76
2018-05-04T08:07:54.757Z,46.86
2018-05-04T08:08:54.796Z,46.47
2018-05-04T08:09:54.819Z,46.56
2018-05-04T08:10:54.847Z,46.76
2018-05-04T08:11:54.931Z,46.47
2018-05-04T08:12:55.216Z,46.66
2018-05-04T08:13:54.942Z,46.56
2018-05-04T08:14:54.974Z,46.66
2018-05-04T08:15:55.011Z,46.37
2018-05-04T08:16:55.092Z,46.28
2018-05-04T08:17:55.090Z,46.28
2018-05-04T08:18:55.462Z,46.37
2018-05-04T08:19:55.181Z,46.28
2018-05-04T08:20:55.163Z,46.28
2018-05-04T08:21:55.194Z,46.47
2018-05-04T08:22:55.297Z,46.37
2018-05-04T08:23:55.301Z,46.37
2018-05-04T08:24:55.910Z,46.18
2018-05-04T08:25:55.324Z,46.47
2018-05-04T08:26:55.348Z,46.47
2018-05-04T08:27:55.375Z,46.30
2018-05-04T08:28:55.407Z,46.08
2018-05-04T08:29:55.443Z,46.18
2018-05-04T08:30:55.773Z,46.11
2018-05-04T08:31:55.500Z,46.47
2018-05-04T08:32:55.532Z,46.37
2018-05-04T08:33:55.614Z,46.47
2018-05-04T08:34:55.612Z,46.28
2018-05-04T08:35:55.634Z,46.37
2018-05-04T08:36:56.060Z,46.47
2018-05-04T08:37:55.700Z,46.40
2018-05-04T08:38:55.717Z,46.18
2018-05-04T08:39:56.249Z,46.18
2018-05-04T08:40:55.790Z,46.28
2018-05-04T08:41:55.817Z,46.20
2018-05-04T08:42:56.240Z,46.28
2018-05-04T08:43:55.881Z,46.28
2018-05-04T08:44:55.903Z,46.49
2018-05-04T08:45:55.936Z,45.89
2018-05-04T08:46:56.000Z,46.01
2018-05-04T08:47:55.998Z,45.89
2018-05-04T08:48:56.331Z,46.18
2018-05-04T08:49:56.063Z,45.92
2018-05-04T08:50:56.296Z,45.92
2018-05-04T08:51:56.121Z,46.20
2018-05-04T08:52:56.162Z,46.11
2018-05-04T08:53:56.188Z,46.20
2018-05-04T08:54:56.518Z,46.20
2018-05-04T08:55:56.248Z,45.92
2018-05-04T08:56:56.485Z,46.20
2018-05-04T08:57:56.318Z,46.11
2018-05-04T08:58:56.341Z,46.11
2018-05-04T08:59:56.437Z,45.92
2018-05-04T09:00:57.061Z,46.01
2018-05-04T09:01:56.442Z,46.01
2018-05-04T09:02:56.470Z,46.11
2018-05-04T09:03:56.499Z,46.01
2018-05-04T09:04:56.540Z,46.11
2018-05-04T09:05:56.561Z,46.11
2018-05-04T09:06:56.939Z,46.20
2018-05-04T09:07:56.629Z,46.20
2018-05-04T09:08:57.071Z,46.01
2018-05-04T09:09:56.686Z,46.20
2018-05-04T09:10:56.729Z,46.11
2018-05-04T09:11:56.799Z,46.40
2018-05-04T09:12:56.804Z,46.11
2018-05-04T09:13:57.260Z,46.01
2018-05-04T09:14:56.939Z,45.92
2018-05-04T09:15:56.877Z,46.11
2018-05-04T09:16:57.177Z,46.11
2018-05-04T09:17:56.936Z,46.11
2018-05-04T09:18:57.046Z,46.01
2018-05-04T09:19:57.132Z,46.20
2018-05-04T09:20:57.391Z,45.53
2018-05-04T09:21:57.167Z,45.92
2018-05-04T09:22:57.295Z,46.01
2018-05-04T09:23:57.172Z,45.82
2018-05-04T09:24:57.156Z,45.92
2018-05-04T09:25:57.187Z,45.92
2018-05-04T09:26:57.226Z,45.92
2018-05-04T09:27:57.571Z,45.92
2018-05-04T09:28:57.388Z,45.92
2018-05-04T09:29:57.370Z,46.01
2018-05-04T09:30:57.375Z,45.92
2018-05-04T09:31:57.377Z,45.82
2018-05-04T09:32:57.962Z,45.72
2018-05-04T09:33:57.442Z,45.62
2018-05-04T09:34:57.781Z,45.92
2018-05-04T09:35:57.516Z,45.92
2018-05-04T09:36:57.544Z,45.82
2018-05-04T09:37:57.572Z,45.82
2018-05-04T09:38:57.729Z,45.72
2018-05-04T09:39:57.637Z,45.94
2018-05-04T09:40:57.763Z,45.82
2018-05-04T09:41:58.212Z,45.82
2018-05-04T09:42:57.788Z,45.53
2018-05-04T09:43:57.819Z,45.43
2018-05-04T09:44:57.784Z,45.34
2018-05-04T09:45:57.967Z,45.43
2018-05-04T09:46:57.854Z,45.53
2018-05-04T09:47:57.879Z,45.62
2018-05-04T09:48:58.294Z,45.62
2018-05-04T09:49:57.942Z,45.65
2018-05-04T09:50:57.981Z,45.53
2018-05-04T09:51:58.009Z,45.72
2018-05-04T09:52:58.049Z,45.75
2018-05-04T09:53:58.097Z,45.84
2018-05-04T09:54:58.106Z,45.94
2018-05-04T09:55:58.588Z,46.03
2018-05-04T09:56:58.169Z,45.65
2018-05-04T09:57:58.200Z,45.84
2018-05-04T09:58:58.232Z,45.94
2018-05-04T09:59:58.263Z,45.65
2018-05-04T10:00:58.361Z,45.84
2018-05-04T10:01:58.328Z,45.75
2018-05-04T10:02:58.707Z,45.36
2018-05-04T10:03:58.388Z,45.36
2018-05-04T10:04:58.425Z,45.07
2018-05-04T10:05:58.460Z,45.65
2018-05-04T10:06:58.491Z,44.97
2018-05-04T10:07:58.524Z,45.26
2018-05-04T10:08:58.620Z,45.17
2018-05-04T10:09:58.931Z,45.07
2018-05-04T10:10:58.626Z,45.07
2018-05-04T10:11:58.705Z,45.17
2018-05-04T10:12:58.681Z,45.07
2018-05-04T10:13:58.713Z,45.07
2018-05-04T10:14:58.743Z,45.17
2018-05-04T10:15:58.790Z,44.97
2018-05-04T10:16:59.152Z,45.07
2018-05-04T10:17:58.890Z,45.36
2018-05-04T10:18:58.872Z,45.17
2018-05-04T10:19:58.895Z,45.26
2018-05-04T10:20:58.927Z,45.36
2018-05-04T10:21:59.023Z,45.26
2018-05-04T10:22:59.076Z,45.17
2018-05-04T10:23:59.343Z,45.17
2018-05-04T10:24:59.057Z,45.17
2018-05-04T10:25:59.096Z,44.97
2018-05-04T10:26:59.122Z,44.97
2018-05-04T10:27:59.152Z,44.87
2018-05-04T10:28:59.181Z,45.26
2018-05-04T10:29:59.721Z,44.87
2018-05-04T10:30:59.293Z,44.87
2018-05-04T10:31:59.281Z,44.68
2018-05-04T10:32:59.357Z,44.87
2018-05-04T10:33:59.338Z,44.87
2018-05-04T10:34:59.370Z,44.87
2018-05-04T10:35:59.705Z,44.68
2018-05-04T10:36:59.463Z,44.97
2018-05-04T10:37:59.467Z,44.97
2018-05-04T10:38:59.618Z,44.97
2018-05-04T10:39:59.533Z,44.87
2018-05-04T10:40:59.572Z,45.26
2018-05-04T10:41:59.897Z,45.17
2018-05-04T10:42:59.635Z,45.07
2018-05-04T10:43:59.715Z,45.07
2018-05-04T10:44:59.759Z,45.07
2018-05-04T10:45:59.723Z,44.87
2018-05-04T10:46:59.807Z,44.87
2018-05-04T10:48:00.109Z,44.87
2018-05-04T10:48:59.823Z,45.07
2018-05-04T10:49:59.851Z,44.87
2018-05-04T10:50:59.995Z,44.87
2018-05-04T10:51:59.936Z,44.87
2018-05-04T10:52:59.958Z,45.07
2018-05-04T10:54:00.292Z,45.09
2018-05-04T10:55:00.021Z,44.87
2018-05-04T10:56:00.045Z,44.78
2018-05-04T10:57:00.077Z,44.78
2018-05-04T10:58:00.187Z,44.78
2018-05-04T10:59:00.190Z,44.90
2018-05-04T11:00:00.524Z,44.80
2018-05-04T11:01:00.205Z,44.90
2018-05-04T11:02:00.239Z,44.97
2018-05-04T11:03:00.338Z,44.68
2018-05-04T11:04:00.556Z,44.68
2018-05-04T11:05:00.335Z,45.00
2018-05-04T11:06:00.664Z,44.68
2018-05-04T11:07:00.396Z,45.00
2018-05-04T11:08:00.484Z,44.90
2018-05-04T11:09:00.464Z,44.59
2018-05-04T11:10:00.492Z,44.59
2018-05-04T11:11:00.526Z,44.70
2018-05-04T11:12:01.031Z,44.70
2018-05-04T11:13:00.594Z,44.68
2018-05-04T11:14:00.621Z,44.78
2018-05-04T11:15:00.649Z,44.70
2018-05-04T11:16:00.694Z,44.51
2018-05-04T11:17:00.718Z,44.90
2018-05-04T11:18:01.061Z,44.70
2018-05-04T11:19:00.776Z,44.70
2018-05-04T11:20:00.813Z,44.42
2018-05-04T11:21:00.849Z,44.60
2018-05-04T11:22:00.883Z,44.70
2018-05-04T11:23:00.906Z,44.60
2018-05-04T11:24:01.289Z,44.70
2018-05-04T11:25:00.970Z,44.42
2018-05-04T11:26:01.018Z,44.70
2018-05-04T11:27:01.061Z,44.51
2018-05-04T11:28:01.125Z,44.70
2018-05-04T11:29:01.104Z,44.70
2018-05-04T11:30:01.433Z,44.70
2018-05-04T11:31:01.181Z,44.80
2018-05-04T11:32:01.259Z,44.80
2018-05-04T11:33:01.287Z,44.60
2018-05-04T11:34:01.316Z,44.60
2018-05-04T11:35:01.296Z,44.70
2018-05-04T11:36:01.695Z,44.80
2018-05-04T11:37:01.369Z,44.70
2018-05-04T11:38:01.460Z,44.80
2018-05-04T11:39:01.592Z,44.42
2018-05-04T11:40:01.577Z,44.80
2018-05-04T11:41:01.486Z,44.60
2018-05-04T11:42:01.889Z,44.60
2018-05-04T11:43:01.652Z,44.60
2018-05-04T11:44:01.585Z,44.60
2018-05-04T11:45:01.669Z,44.51
2018-05-04T11:46:01.645Z,44.80
2018-05-04T11:47:01.679Z,44.51
2018-05-04T11:48:01.729Z,44.60
2018-05-04T11:49:02.052Z,44.70
2018-05-04T11:50:01.776Z,44.70
2018-05-04T11:51:01.884Z,44.70
2018-05-04T11:52:01.901Z,44.51
2018-05-04T11:53:01.875Z,44.60
2018-05-04T11:54:01.995Z,44.60
2018-05-04T11:55:01.939Z,44.51
2018-05-04T11:56:02.319Z,44.60
2018-05-04T11:57:02.006Z,44.60
2018-05-04T11:58:02.071Z,44.70
2018-05-04T11:59:02.068Z,44.60
2018-05-04T12:00:02.148Z,44.42
2018-05-04T12:01:02.145Z,44.42
2018-05-04T12:02:02.178Z,44.60
2018-05-04T12:03:02.495Z,44.70
2018-05-04T12:04:02.228Z,44.51
2018-05-04T12:05:02.263Z,44.51
2018-05-04T12:06:02.324Z,44.42
2018-05-04T12:07:02.413Z,44.42
2018-05-04T12:08:02.368Z,44.51
2018-05-04T12:09:02.396Z,44.51
2018-05-04T12:10:02.790Z,44.51
2018-05-04T12:11:02.452Z,44.60
2018-05-04T12:12:02.511Z,44.51
2018-05-04T12:13:02.581Z,44.42
2018-05-04T12:14:02.554Z,44.51
2018-05-04T12:15:02.596Z,44.51
2018-05-04T12:16:02.628Z,44.32
2018-05-04T12:17:02.995Z,44.51
2018-05-04T12:18:02.694Z,44.51
2018-05-04T12:19:02.711Z,44.32
2018-05-04T12:20:02.799Z,44.32
2018-05-04T12:21:02.790Z,44.32
2018-05-04T12:22:02.817Z,44.32
2018-05-04T12:23:02.848Z,44.32
2018-05-04T12:24:03.239Z,44.32
2018-05-04T12:25:02.907Z,44.22
2018-05-04T12:26:02.938Z,44.32
2018-05-04T12:27:02.974Z,44.22
2018-05-04T12:28:03.054Z,44.15
2018-05-04T12:29:03.039Z,44.22
2018-05-04T12:30:03.079Z,44.24
2018-05-04T12:31:03.457Z,44.15
2018-05-04T12:32:03.169Z,44.24
2018-05-04T12:33:03.282Z,44.05
2018-05-04T12:34:03.198Z,44.05
2018-05-04T12:35:03.241Z,44.15
2018-05-04T12:36:03.284Z,44.15
2018-05-04T12:37:03.300Z,44.24
2018-05-04T12:38:03.686Z,44.24
2018-05-04T12:39:03.366Z,44.15
2018-05-04T12:40:03.394Z,44.24
2018-05-04T12:41:03.431Z,44.24
2018-05-04T12:42:03.457Z,44.34
2018-05-04T12:43:03.511Z,44.24
2018-05-04T12:44:03.540Z,44.24
2018-05-04T12:45:03.909Z,44.24
2018-05-04T12:46:03.589Z,44.24
2018-05-04T12:47:03.737Z,44.24
2018-05-04T12:48:03.692Z,44.24
2018-05-04T12:49:03.697Z,44.43
2018-05-04T12:50:03.720Z,44.34
2018-05-04T12:51:03.751Z,44.24
2018-05-04T12:52:04.136Z,44.43
2018-05-04T12:53:03.844Z,44.43
2018-05-04T12:54:03.854Z,44.34